Time;durP1;ratioP1;P1;durP2;ratioP2;P2;SDS_P1;SDS_P2;PMS_P1;PMS_P2;Temp;Humidity;BMP_temperature;BMP_pressure;BME280_temperature;BME280_humidity;BME280_pressure;Samples;Min_cycle;Max_cycle;Signal;HPM_P1;HPM_P2
2022/11/05 00:11:15;;;;;;;9.20;8.30;;;9.60;99.90;;;;;;5044668;28;20201;-65
2022/11/05 00:16:44;;;;;;;10.68;7.85;;;9.60;99.90;;;;;;5053658;28;20533;-64
2022/11/05 00:19:13;;;;;;;8.45;7.65;;;9.60;99.90;;;;;;5054141;28;20185;-64
2022/11/05 00:27:13;;;;;;;13.75;9.05;;;9.50;99.90;;;;;;5071004;28;20265;-65
2022/11/05 00:29:41;;;;;;;13.50;8.90;;;9.60;99.90;;;;;;5073694;28;20211;-64
2022/11/05 00:32:09;;;;;;;12.38;8.70;;;9.60;99.90;;;;;;5073228;28;20563;-64
2022/11/05 00:34:38;;;;;;;15.90;8.35;;;9.60;99.90;;;;;;5068171;28;20212;-65
2022/11/05 00:37:07;;;;;;;10.32;8.65;;;9.50;99.90;;;;;;5071016;28;20191;-64
2022/11/05 00:39:35;;;;;;;9.20;8.25;;;9.60;99.90;;;;;;5063035;28;20204;-64
2022/11/05 00:45:03;;;;;;;13.48;8.00;;;9.60;99.90;;;;;;5071712;28;20188;-64
2022/11/05 00:50:34;;;;;;;14.10;8.15;;;9.60;99.90;;;;;;4991327;28;20217;-64
2022/11/05 00:53:04;;;;;;;17.00;8.00;;;9.60;99.90;;;;;;5008571;28;20205;-65
2022/11/05 00:55:36;;;;;;;10.88;7.90;;;9.60;99.90;;;;;;5032131;28;20576;-64
2022/11/05 00:58:10;;;;;;;9.50;8.13;;;9.60;99.90;;;;;;5056457;28;20237;-65
2022/11/05 01:00:43;;;;;;;9.00;8.15;;;9.50;99.90;;;;;;5072685;28;20206;-65
2022/11/05 01:03:13;;;;;;;14.57;8.68;;;9.50;99.90;;;;;;5061311;28;20201;-64
2022/11/05 01:05:44;;;;;;;9.88;7.10;;;9.50;99.90;;;;;;5068055;28;20568;-64
2022/11/05 01:08:14;;;;;;;12.07;9.70;;;9.50;99.90;;;;;;5053921;28;20216;-64
2022/11/05 01:10:45;;;;;;;12.68;8.40;;;9.50;99.90;;;;;;5056743;28;20189;-64
2022/11/05 01:13:16;;;;;;;11.20;7.40;;;9.50;99.90;;;;;;5061392;28;20660;-64
2022/11/05 01:15:44;;;;;;;9.18;7.93;;;9.60;99.90;;;;;;5053272;28;20192;-65
2022/11/05 01:18:12;;;;;;;13.88;7.53;;;9.60;99.90;;;;;;5056707;28;20723;-64
2022/11/05 01:20:42;;;;;;;10.43;6.80;;;9.60;99.90;;;;;;5052932;28;20193;-65
2022/11/05 01:23:10;;;;;;;8.15;7.00;;;9.60;99.90;;;;;;5054318;28;20192;-65
2022/11/05 01:25:41;;;;;;;8.90;6.75;;;9.60;99.90;;;;;;5051677;28;20196;-66
2022/11/05 01:28:10;;;;;;;16.15;8.77;;;9.60;99.90;;;;;;5062918;28;20207;-65
2022/11/05 01:30:38;;;;;;;10.95;7.72;;;9.60;99.90;;;;;;5072772;28;20199;-65
2022/11/05 01:33:06;;;;;;;10.02;8.70;;;9.70;99.90;;;;;;5068890;28;20207;-63
2022/11/05 01:35:35;;;;;;;20.52;10.95;;;9.70;99.90;;;;;;5054669;28;20224;-63
2022/11/05 01:38:04;;;;;;;17.83;10.60;;;9.60;99.90;;;;;;5071121;28;20196;-64
2022/11/05 01:40:32;;;;;;;17.65;11.00;;;9.60;99.90;;;;;;5071936;28;20211;-65
2022/11/05 01:43:02;;;;;;;17.55;10.93;;;9.60;99.90;;;;;;5070988;28;20224;-64
2022/11/05 01:45:31;;;;;;;10.25;9.02;;;9.70;99.90;;;;;;5062080;28;20201;-64
2022/11/05 01:48:04;;;;;;;9.43;7.70;;;9.70;99.90;;;;;;5063200;28;20211;-64
2022/11/05 01:50:37;;;;;;;11.30;7.13;;;9.70;99.90;;;;;;5052715;28;20250;-65
2022/11/05 01:53:12;;;;;;;8.55;6.65;;;9.60;99.90;;;;;;5059584;28;20240;-64
2022/11/05 01:55:44;;;;;;;10.23;7.88;;;9.70;99.90;;;;;;5072428;28;20558;-64
2022/11/05 01:58:16;;;;;;;8.13;7.25;;;9.70;99.90;;;;;;5072480;28;20226;-64
2022/11/05 02:00:45;;;;;;;14.65;9.32;;;9.60;99.90;;;;;;5072479;28;20564;-65
2022/11/05 02:03:16;;;;;;;13.13;8.07;;;9.60;99.90;;;;;;5071528;28;20208;-65
2022/11/05 02:05:46;;;;;;;14.18;8.60;;;9.60;99.90;;;;;;5060143;28;20206;-65
2022/11/05 02:08:25;;;;;;;11.18;9.43;;;9.60;99.90;;;;;;5052127;28;20221;-65
2022/11/05 02:10:53;;;;;;;9.25;7.63;;;9.60;99.90;;;;;;5052423;28;20596;-65
2022/11/05 02:13:21;;;;;;;9.57;8.32;;;9.60;99.90;;;;;;5052641;28;20204;-65
2022/11/05 02:16:01;;;;;;;8.20;7.38;;;9.70;99.90;;;;;;5052035;28;20207;-63
2022/11/05 02:18:44;;;;;;;8.82;7.43;;;9.70;99.90;;;;;;5052435;28;20189;-64
2022/11/05 02:21:53;;;;;;;8.85;7.38;;;9.70;99.90;;;;;;5068550;28;20207;-64
2022/11/05 02:24:59;;;;;;;11.88;7.43;;;9.70;99.90;;;;;;5070141;28;20208;-64
2022/11/05 02:27:53;;;;;;;7.85;6.80;;;9.70;99.90;;;;;;5051288;28;20224;-64
2022/11/05 02:30:36;;;;;;;11.30;6.85;;;9.60;99.90;;;;;;5061249;28;20208;-64
2022/11/05 02:33:23;;;;;;;9.48;6.97;;;9.60;99.90;;;;;;5056425;28;20183;-64
2022/11/05 02:36:09;;;;;;;7.57;6.75;;;9.60;99.90;;;;;;5061723;28;20226;-64
2022/11/05 02:38:41;;;;;;;7.15;6.50;;;9.60;99.90;;;;;;5066113;28;20281;-64
2022/11/05 02:41:18;;;;;;;10.20;6.95;;;9.60;99.90;;;;;;5057208;28;20214;-64
2022/11/05 02:43:57;;;;;;;8.90;6.95;;;9.60;99.90;;;;;;5067962;28;20232;-64
2022/11/05 02:46:34;;;;;;;12.18;8.90;;;9.60;99.90;;;;;;5060488;28;20200;-64
2022/11/05 02:49:15;;;;;;;11.27;9.10;;;9.60;99.90;;;;;;5069626;28;20222;-64
2022/11/05 02:51:48;;;;;;;9.65;7.70;;;9.60;99.90;;;;;;5049809;28;20213;-64
2022/11/05 02:54:22;;;;;;;9.07;8.23;;;9.60;99.90;;;;;;5050675;28;20761;-64
2022/11/05 02:56:53;;;;;;;7.00;6.30;;;9.60;99.90;;;;;;5051240;28;20211;-64
2022/11/05 02:59:21;;;;;;;8.95;7.13;;;9.60;99.90;;;;;;5050804;28;20193;-64
2022/11/05 03:01:52;;;;;;;10.05;7.15;;;9.50;99.90;;;;;;5050563;28;20193;-64
2022/11/05 03:04:23;;;;;;;8.43;7.53;;;9.50;99.90;;;;;;5049843;28;20189;-64
2022/11/05 03:07:15;;;;;;;9.20;7.50;;;9.50;99.90;;;;;;5050301;28;20201;-64
2022/11/05 03:10:20;;;;;;;9.07;7.65;;;9.60;99.90;;;;;;5040749;28;20220;-64
2022/11/05 03:12:57;;;;;;;7.40;6.68;;;9.60;99.90;;;;;;5056218;28;20647;-64
2022/11/05 03:15:41;;;;;;;10.45;6.13;;;9.60;99.90;;;;;;5070919;28;20192;-64
2022/11/05 03:18:15;;;;;;;7.95;6.72;;;9.60;99.90;;;;;;5070650;28;20272;-64
2022/11/05 03:20:50;;;;;;;8.57;6.45;;;9.60;99.90;;;;;;5065331;28;20503;-65
2022/11/05 03:23:25;;;;;;;7.60;6.90;;;9.60;99.90;;;;;;5070458;28;20210;-64
2022/11/05 03:25:58;;;;;;;9.50;6.93;;;9.60;99.90;;;;;;5059040;28;20195;-64
2022/11/05 03:28:30;;;;;;;8.95;6.05;;;9.60;99.90;;;;;;5050745;28;20217;-64
2022/11/05 03:31:00;;;;;;;7.80;6.40;;;9.60;99.90;;;;;;5054498;28;20192;-64
2022/11/05 03:33:33;;;;;;;7.65;6.18;;;9.60;99.90;;;;;;5051085;28;20572;-64
2022/11/05 03:36:06;;;;;;;7.10;5.63;;;9.70;99.90;;;;;;5050911;28;20204;-64
2022/11/05 03:38:38;;;;;;;7.25;6.35;;;9.70;99.90;;;;;;5050848;28;20246;-64
2022/11/05 03:41:10;;;;;;;10.32;6.80;;;9.70;99.90;;;;;;5063331;28;20206;-64
2022/11/05 03:43:43;;;;;;;9.30;6.32;;;9.60;99.90;;;;;;5070091;28;20725;-64
2022/11/05 03:46:17;;;;;;;8.60;7.10;;;9.70;99.90;;;;;;5069420;28;20218;-64
2022/11/05 03:48:51;;;;;;;11.38;6.40;;;9.70;99.90;;;;;;5064703;28;20203;-64
2022/11/05 03:51:29;;;;;;;10.32;6.53;;;9.70;99.90;;;;;;5059343;28;21014;-64
2022/11/05 03:53:59;;;;;;;6.95;6.32;;;9.80;99.90;;;;;;5053908;28;20215;-64
2022/11/05 03:56:31;;;;;;;7.32;6.63;;;9.80;99.90;;;;;;5054422;28;20645;-64
2022/11/05 03:59:01;;;;;;;7.07;6.38;;;9.80;99.90;;;;;;5058732;28;20180;-64
2022/11/05 04:01:30;;;;;;;10.55;6.53;;;9.70;99.90;;;;;;5062174;28;20201;-64
2022/11/05 04:04:00;;;;;;;7.88;6.22;;;9.70;99.90;;;;;;5071264;28;20203;-64
2022/11/05 04:14:44;;;;;;;4.55;4.15;;;9.50;99.90;;;;;;5053113;28;20212;-65
2022/11/05 04:17:11;;;;;;;4.10;3.70;;;9.50;99.90;;;;;;5070313;28;20208;-65
2022/11/05 04:25:16;;;;;;;6.65;3.75;;;9.50;99.90;;;;;;5053563;28;20216;-64
2022/11/05 04:27:45;;;;;;;4.07;3.53;;;9.40;99.90;;;;;;5054228;28;20232;-64
2022/11/05 04:30:20;;;;;;;4.18;3.58;;;9.40;99.90;;;;;;5055053;28;20235;-64
2022/11/05 04:33:13;;;;;;;3.95;3.65;;;9.40;99.90;;;;;;5073076;28;20184;-64
2022/11/05 04:35:44;;;;;;;4.05;3.55;;;9.40;99.90;;;;;;5054737;28;20202;-64
2022/11/05 04:38:14;;;;;;;4.03;3.72;;;9.30;99.90;;;;;;5073204;28;20188;-65
2022/11/05 04:40:43;;;;;;;4.53;4.22;;;9.30;99.90;;;;;;5059939;28;20201;-65
2022/11/05 04:43:13;;;;;;;4.07;3.72;;;9.30;99.90;;;;;;5069300;28;20228;-64
2022/11/05 04:45:41;;;;;;;4.75;4.30;;;9.30;99.90;;;;;;5068086;28;20196;-65
2022/11/05 04:48:09;;;;;;;8.50;4.45;;;9.30;99.90;;;;;;5072936;28;20200;-64
2022/11/05 04:50:38;;;;;;;6.28;3.97;;;9.30;99.90;;;;;;5064736;28;20201;-64
2022/11/05 04:53:07;;;;;;;3.95;3.65;;;9.40;99.90;;;;;;5066423;28;20256;-65
2022/11/05 04:55:35;;;;;;;4.15;3.60;;;9.40;99.90;;;;;;5072751;28;20207;-65
2022/11/05 04:58:05;;;;;;;4.72;4.28;;;9.30;99.90;;;;;;5072242;28;20219;-65
2022/11/05 05:00:33;;;;;;;4.20;3.90;;;9.30;99.90;;;;;;5067893;28;20193;-65
2022/11/05 05:03:01;;;;;;;4.15;3.85;;;9.30;99.90;;;;;;5051424;28;20682;-64
2022/11/05 05:05:30;;;;;;;5.57;4.40;;;9.30;99.90;;;;;;5064929;28;20206;-65
2022/11/05 05:08:01;;;;;;;4.20;3.47;;;9.20;99.90;;;;;;5071978;28;20207;-65
2022/11/05 05:10:30;;;;;;;5.65;5.15;;;9.20;99.90;;;;;;5052642;28;20672;-65
2022/11/05 05:12:58;;;;;;;6.88;4.78;;;9.20;99.90;;;;;;5051946;28;20188;-65
2022/11/05 05:15:27;;;;;;;6.03;4.68;;;9.20;99.90;;;;;;5052521;28;20201;-65
2022/11/05 05:17:55;;;;;;;4.15;3.85;;;9.20;99.90;;;;;;5052083;28;20204;-65
2022/11/05 05:23:08;;;;;;;6.07;5.30;;;9.10;99.90;;;;;;5052245;28;20205;-65
2022/11/05 05:25:38;;;;;;;4.45;4.05;;;9.00;99.90;;;;;;5052361;28;20203;-65
2022/11/05 05:28:06;;;;;;;5.28;4.35;;;9.00;99.90;;;;;;5051581;28;20212;-65
2022/11/05 05:30:34;;;;;;;5.32;4.82;;;9.00;99.90;;;;;;5052379;28;20216;-65
2022/11/05 05:33:03;;;;;;;5.18;4.70;;;9.00;99.90;;;;;;5051738;28;20200;-65
2022/11/05 05:35:31;;;;;;;4.95;4.55;;;9.00;99.90;;;;;;5052370;28;20200;-65
2022/11/05 05:37:59;;;;;;;6.40;5.25;;;9.00;99.90;;;;;;5051558;28;20211;-65
2022/11/05 05:40:27;;;;;;;6.45;4.82;;;9.00;99.90;;;;;;5051705;28;20196;-65
2022/11/05 05:42:57;;;;;;;5.50;4.47;;;9.00;99.90;;;;;;5051556;28;20298;-65
2022/11/05 05:45:25;;;;;;;5.50;4.95;;;9.00;99.90;;;;;;5051702;28;20663;-65
2022/11/05 05:47:55;;;;;;;4.70;4.28;;;9.10;99.90;;;;;;5052019;28;20204;-65
2022/11/05 05:50:23;;;;;;;5.57;5.00;;;9.10;99.90;;;;;;5052058;28;20320;-65
2022/11/05 05:52:53;;;;;;;8.07;4.63;;;9.00;99.90;;;;;;5051701;28;20209;-65
2022/11/05 05:55:21;;;;;;;6.88;4.32;;;9.00;99.90;;;;;;5051942;28;20204;-65
2022/11/05 05:57:50;;;;;;;6.00;4.00;;;9.00;99.90;;;;;;5051853;28;20224;-65
2022/11/05 06:00:19;;;;;;;5.10;4.60;;;9.00;99.90;;;;;;5051601;28;20682;-65
2022/11/05 06:02:47;;;;;;;8.57;4.13;;;9.00;99.90;;;;;;5050736;28;20208;-65
2022/11/05 06:05:16;;;;;;;4.90;4.40;;;8.90;99.90;;;;;;5051070;28;20207;-65
2022/11/05 06:07:44;;;;;;;4.80;4.40;;;8.90;99.90;;;;;;5051766;28;20287;-65
2022/11/05 06:10:12;;;;;;;4.88;4.10;;;8.90;99.90;;;;;;5050667;28;20289;-65
2022/11/05 06:12:40;;;;;;;7.15;6.22;;;8.80;99.90;;;;;;5050952;28;20552;-65
2022/11/05 06:15:09;;;;;;;7.85;7.10;;;8.90;99.90;;;;;;5052156;28;20239;-65
2022/11/05 06:17:39;;;;;;;4.40;3.83;;;8.90;99.90;;;;;;5052725;28;20208;-65
2022/11/05 06:20:08;;;;;;;5.05;4.35;;;8.90;99.90;;;;;;5053356;28;20216;-65
2022/11/05 06:22:36;;;;;;;5.18;4.78;;;8.90;99.90;;;;;;5065703;28;20249;-64
2022/11/05 06:25:05;;;;;;;4.20;3.80;;;8.90;99.90;;;;;;5071645;28;20208;-65
2022/11/05 06:27:34;;;;;;;6.38;3.70;;;8.80;99.90;;;;;;5072450;28;20211;-65
2022/11/05 06:30:03;;;;;;;4.38;3.97;;;8.70;99.90;;;;;;5058487;28;20572;-65
2022/11/05 06:32:31;;;;;;;5.00;4.35;;;8.80;99.90;;;;;;5054290;28;20213;-65
2022/11/05 06:35:01;;;;;;;4.68;4.25;;;8.80;99.90;;;;;;5051653;28;20200;-65
2022/11/05 06:37:32;;;;;;;4.57;4.18;;;8.80;99.90;;;;;;5067300;28;20529;-65
2022/11/05 06:40:00;;;;;;;3.90;3.60;;;8.80;99.90;;;;;;5070407;28;20210;-65
2022/11/05 06:42:28;;;;;;;4.32;3.92;;;8.80;99.90;;;;;;5058990;28;20578;-65
2022/11/05 06:44:56;;;;;;;3.85;3.42;;;8.80;99.90;;;;;;5052148;28;20189;-65
2022/11/05 06:47:24;;;;;;;5.28;4.18;;;8.70;99.90;;;;;;5060182;28;20196;-65
2022/11/05 06:49:52;;;;;;;3.67;3.38;;;8.80;99.90;;;;;;5071002;28;20223;-65
2022/11/05 06:52:22;;;;;;;3.90;3.60;;;8.80;99.90;;;;;;5066904;28;20853;-65
2022/11/05 06:54:50;;;;;;;4.10;3.55;;;8.90;99.90;;;;;;5069664;28;20276;-65
2022/11/05 06:57:18;;;;;;;7.75;3.90;;;8.80;99.90;;;;;;5065444;28;20219;-65
2022/11/05 06:59:46;;;;;;;3.55;2.90;;;8.80;99.90;;;;;;5056649;28;20189;-65
2022/11/05 07:02:16;;;;;;;3.90;3.60;;;8.70;99.90;;;;;;5056061;28;20876;-65
2022/11/05 07:04:47;;;;;;;3.45;3.15;;;8.70;99.90;;;;;;5055887;28;20197;-65
2022/11/05 07:07:15;;;;;;;3.80;3.50;;;8.70;99.90;;;;;;5061941;28;20205;-65
2022/11/05 07:09:46;;;;;;;3.63;3.33;;;8.70;99.90;;;;;;5060371;28;20212;-65
2022/11/05 07:12:14;;;;;;;4.32;3.90;;;8.80;99.90;;;;;;5059534;28;20418;-65
2022/11/05 07:14:42;;;;;;;8.77;3.95;;;8.80;99.90;;;;;;5050287;28;20644;-64
2022/11/05 07:17:13;;;;;;;3.83;3.30;;;8.80;99.90;;;;;;5060211;28;20759;-64
2022/11/05 07:19:41;;;;;;;3.75;3.47;;;8.80;99.90;;;;;;5061581;28;20189;-64
2022/11/05 07:22:09;;;;;;;9.98;4.32;;;8.70;99.90;;;;;;5049767;28;20777;-64
2022/11/05 07:24:39;;;;;;;3.95;3.65;;;8.80;99.90;;;;;;5050063;28;20200;-64
2022/11/05 07:27:09;;;;;;;3.75;3.42;;;8.80;99.90;;;;;;5064069;28;20197;-64
2022/11/05 07:29:37;;;;;;;5.35;4.85;;;8.80;99.90;;;;;;5063151;28;20192;-64
2022/11/05 07:32:05;;;;;;;3.80;3.50;;;8.80;99.90;;;;;;5069747;28;20200;-64
2022/11/05 07:34:33;;;;;;;6.55;4.13;;;8.80;99.90;;;;;;5074802;28;20199;-64
2022/11/05 07:37:01;;;;;;;6.63;5.97;;;8.80;99.90;;;;;;5075684;28;20666;-64
2022/11/05 07:39:29;;;;;;;6.93;6.22;;;8.80;99.90;;;;;;5073775;28;20219;-65
2022/11/05 07:41:57;;;;;;;4.97;4.28;;;8.90;99.90;;;;;;5075593;28;20204;-65
2022/11/05 07:44:34;;;;;;;10.00;6.57;;;9.00;99.90;;;;;;5073818;28;20555;-65
2022/11/05 07:47:02;;;;;;;7.00;5.72;;;9.10;99.90;;;;;;5072508;28;20216;-65
2022/11/05 07:49:30;;;;;;;8.48;5.30;;;9.20;99.90;;;;;;5074249;28;20268;-65
2022/11/05 07:51:58;;;;;;;5.60;4.00;;;9.20;99.90;;;;;;5067508;28;20201;-64
2022/11/05 07:54:26;;;;;;;4.07;3.78;;;9.30;99.90;;;;;;5063729;28;20211;-65
2022/11/05 07:56:54;;;;;;;8.13;4.05;;;9.20;99.90;;;;;;5062816;28;20610;-65
2022/11/05 07:59:22;;;;;;;4.07;3.75;;;9.30;99.90;;;;;;5064408;28;20215;-65
2022/11/05 08:01:51;;;;;;;4.75;4.32;;;9.30;99.90;;;;;;5064271;28;20601;-65
2022/11/05 08:04:19;;;;;;;4.13;3.70;;;9.30;99.90;;;;;;5063423;28;20569;-65
2022/11/05 08:06:47;;;;;;;5.10;4.10;;;9.10;99.90;;;;;;5060039;28;20547;-64
2022/11/05 08:09:15;;;;;;;3.55;3.35;;;9.20;99.90;;;;;;5069432;28;20582;-65
2022/11/05 08:11:43;;;;;;;4.15;3.22;;;9.30;99.90;;;;;;5055378;28;20224;-65
2022/11/05 08:14:12;;;;;;;3.72;2.92;;;9.40;99.90;;;;;;5060783;28;20196;-65
2022/11/05 08:16:40;;;;;;;3.90;2.88;;;9.40;99.90;;;;;;5065951;28;20655;-65
2022/11/05 08:19:10;;;;;;;5.28;4.82;;;9.30;99.90;;;;;;5067896;28;20196;-65
2022/11/05 08:21:38;;;;;;;4.78;4.03;;;9.50;99.90;;;;;;5073278;28;20550;-65
2022/11/05 08:24:07;;;;;;;3.15;2.70;;;9.60;99.90;;;;;;5074124;28;20207;-65
2022/11/05 08:26:35;;;;;;;8.38;3.05;;;9.40;99.90;;;;;;5055337;28;20534;-64
2022/11/05 08:29:03;;;;;;;4.90;3.95;;;9.40;99.90;;;;;;5061527;28;20219;-64
2022/11/05 08:31:31;;;;;;;4.35;3.67;;;9.50;99.90;;;;;;5053610;28;20301;-64
2022/11/05 08:33:59;;;;;;;4.50;4.15;;;9.70;99.90;;;;;;5053096;28;20254;-64
2022/11/05 08:36:29;;;;;;;4.68;3.53;;;9.60;99.90;;;;;;5052371;28;20208;-64
2022/11/05 08:38:57;;;;;;;4.30;3.90;;;9.60;99.90;;;;;;5059700;28;20197;-65
2022/11/05 08:41:25;;;;;;;5.93;5.35;;;9.60;99.90;;;;;;5063453;28;20204;-65
2022/11/05 08:43:55;;;;;;;3.75;3.45;;;9.70;99.90;;;;;;5053180;28;20232;-65
2022/11/05 08:46:23;;;;;;;3.35;3.05;;;9.90;99.90;;;;;;5054205;28;20208;-65
2022/11/05 08:48:51;;;;;;;4.35;3.05;;;10.00;99.90;;;;;;5059043;28;20197;-65
2022/11/05 08:51:20;;;;;;;3.35;3.15;;;10.00;99.90;;;;;;5063589;28;20216;-65
2022/11/05 08:53:49;;;;;;;3.65;3.35;;;10.10;99.90;;;;;;5061649;28;20257;-64
2022/11/05 08:56:17;;;;;;;7.18;3.55;;;10.00;99.90;;;;;;5062971;28;20578;-64
2022/11/05 08:58:45;;;;;;;3.97;3.58;;;10.00;99.90;;;;;;5061560;28;20192;-64
2022/11/05 09:01:13;;;;;;;5.90;3.95;;;10.20;99.90;;;;;;5058375;28;20203;-65
2022/11/05 09:03:41;;;;;;;4.07;3.40;;;10.10;99.90;;;;;;5052431;28;20208;-65
2022/11/05 09:06:09;;;;;;;5.13;3.10;;;10.10;99.90;;;;;;5062504;28;20196;-65
2022/11/05 09:08:37;;;;;;;2.97;2.78;;;10.20;99.90;;;;;;5067411;28;20234;-65
2022/11/05 09:11:07;;;;;;;5.15;3.00;;;10.00;99.90;;;;;;5073450;28;20226;-65
2022/11/05 09:13:35;;;;;;;3.22;2.70;;;10.10;99.90;;;;;;5072351;28;20208;-65
2022/11/05 09:16:03;;;;;;;11.07;3.00;;;10.20;99.90;;;;;;5067201;28;20591;-65
2022/11/05 09:18:31;;;;;;;6.43;3.40;;;10.40;99.90;;;;;;5053427;28;20212;-65
2022/11/05 09:20:59;;;;;;;4.57;2.75;;;10.60;99.90;;;;;;5057139;28;20376;-65
2022/11/05 09:23:27;;;;;;;4.18;3.03;;;10.30;99.90;;;;;;5071178;28;20549;-65
2022/11/05 09:25:55;;;;;;;3.33;3.03;;;10.30;99.90;;;;;;5071935;28;20199;-65
2022/11/05 09:28:25;;;;;;;2.83;2.63;;;10.40;99.90;;;;;;5073174;28;20702;-65
2022/11/05 09:30:53;;;;;;;4.05;3.08;;;10.20;99.90;;;;;;5072847;28;20282;-65
2022/11/05 09:33:24;;;;;;;4.40;2.65;;;10.20;99.90;;;;;;5072933;28;20208;-65
2022/11/05 09:35:52;;;;;;;6.82;3.40;;;10.20;99.90;;;;;;5072578;28;20200;-65
2022/11/05 09:38:20;;;;;;;4.32;3.30;;;10.40;99.90;;;;;;5072990;28;20689;-65
2022/11/05 09:40:55;;;;;;;3.67;2.95;;;10.30;99.90;;;;;;5072870;28;20200;-65
2022/11/05 09:43:29;;;;;;;9.32;4.18;;;10.40;99.90;;;;;;5052117;28;20609;-65
2022/11/05 09:45:59;;;;;;;5.90;4.28;;;10.40;99.90;;;;;;5052460;28;20547;-65
2022/11/05 09:48:30;;;;;;;4.40;2.95;;;10.60;99.90;;;;;;5052122;28;20640;-65
2022/11/05 09:50:58;;;;;;;3.00;2.80;;;10.70;99.90;;;;;;5051970;28;20208;-65
2022/11/05 09:53:27;;;;;;;3.15;2.70;;;10.70;99.90;;;;;;5052567;28;20234;-65
2022/11/05 09:55:57;;;;;;;3.20;3.00;;;10.40;99.90;;;;;;5052280;28;20215;-65
2022/11/05 09:58:36;;;;;;;4.10;3.17;;;10.40;99.90;;;;;;5051848;28;20711;-65
2022/11/05 10:01:07;;;;;;;3.67;3.17;;;10.50;99.90;;;;;;5051802;28;20196;-65
2022/11/05 10:03:42;;;;;;;4.85;2.95;;;10.70;99.90;;;;;;5051199;28;20189;-65
2022/11/05 10:06:17;;;;;;;3.70;3.40;;;11.10;99.90;;;;;;5052408;28;20257;-65
2022/11/05 10:08:49;;;;;;;6.30;2.88;;;11.00;99.90;;;;;;5051746;28;20837;-66
2022/11/05 10:11:21;;;;;;;2.95;2.65;;;11.40;99.90;;;;;;5052949;28;20486;-65
2022/11/05 10:13:55;;;;;;;2.83;2.55;;;11.60;99.90;;;;;;5052528;28;20235;-65
2022/11/05 10:16:27;;;;;;;3.73;2.60;;;11.60;99.90;;;;;;5052787;28;20191;-65
2022/11/05 10:18:59;;;;;;;7.33;3.50;;;11.70;99.90;;;;;;5051768;28;21117;-65
2022/11/05 10:21:27;;;;;;;4.10;2.83;;;11.40;99.90;;;;;;5050929;28;20956;-65
2022/11/05 10:23:55;;;;;;;3.33;2.40;;;11.50;99.90;;;;;;5051713;28;20615;-65
2022/11/05 10:26:26;;;;;;;3.28;2.97;;;11.40;99.90;;;;;;5052625;28;20607;-65
2022/11/05 10:28:56;;;;;;;7.20;2.70;;;11.10;99.90;;;;;;5051730;28;20195;-65
2022/11/05 10:31:25;;;;;;;3.57;3.10;;;11.30;99.90;;;;;;5052319;28;20663;-65
2022/11/05 10:33:59;;;;;;;3.60;3.30;;;11.20;99.90;;;;;;5052087;28;20954;-65
2022/11/05 10:36:30;;;;;;;4.47;3.28;;;11.10;99.90;;;;;;5053185;28;20662;-65
2022/11/05 10:39:01;;;;;;;6.97;3.33;;;11.30;99.90;;;;;;5051792;28;20246;-65
2022/11/05 10:41:44;;;;;;;4.07;3.40;;;11.90;99.90;;;;;;5051678;28;20192;-65
2022/11/05 10:44:29;;;;;;;2.40;2.20;;;12.10;99.90;;;;;;5051340;28;21012;-65
2022/11/05 10:47:07;;;;;;;6.13;2.30;;;12.20;99.90;;;;;;5054503;28;20617;-65
2022/11/05 10:49:51;;;;;;;2.67;2.40;;;12.40;99.90;;;;;;5070228;28;20586;-65
2022/11/05 10:52:22;;;;;;;5.00;3.00;;;12.20;99.90;;;;;;5052805;28;21126;-65
2022/11/05 10:54:53;;;;;;;3.40;3.00;;;12.70;99.90;;;;;;5050821;28;20615;-65
2022/11/05 10:57:33;;;;;;;3.57;3.37;;;12.50;99.90;;;;;;5053268;28;20709;-65
2022/11/05 11:00:28;;;;;;;3.47;2.97;;;12.70;99.90;;;;;;5071126;28;20578;-65
2022/11/05 11:02:58;;;;;;;5.30;3.60;;;12.60;99.90;;;;;;5075151;28;20609;-65
2022/11/05 11:05:29;;;;;;;4.00;2.20;;;12.90;99.90;;;;;;5074673;28;21155;-65
2022/11/05 11:08:01;;;;;;;4.47;2.20;;;13.30;99.90;;;;;;5067880;28;20610;-66
2022/11/05 11:10:33;;;;;;;3.73;2.60;;;14.10;99.90;;;;;;5055246;28;20944;-66
2022/11/05 11:13:01;;;;;;;3.83;2.47;;;14.30;99.90;;;;;;5055339;28;20639;-65
2022/11/05 11:15:33;;;;;;;3.10;2.63;;;14.60;99.90;;;;;;5060108;28;20629;-64
2022/11/05 11:18:25;;;;;;;2.50;2.10;;;14.50;99.90;;;;;;5073726;28;20637;-65
2022/11/05 11:20:53;;;;;;;3.13;2.17;;;14.50;99.90;;;;;;5068461;28;20622;-64
2022/11/05 11:23:21;;;;;;;2.40;2.17;;;14.30;99.90;;;;;;5056127;28;20604;-65
2022/11/05 11:25:52;;;;;;;5.63;2.83;;;14.70;99.90;;;;;;5059835;28;20745;-65
2022/11/05 11:28:25;;;;;;;2.67;2.47;;;14.40;99.90;;;;;;5055554;28;21614;-65
2022/11/05 11:31:03;;;;;;;5.60;2.70;;;14.40;99.90;;;;;;5063101;28;20610;-65
2022/11/05 11:33:32;;;;;;;2.73;2.50;;;14.50;99.90;;;;;;5071015;28;21262;-65
2022/11/05 11:36:01;;;;;;;4.93;2.70;;;14.70;99.90;;;;;;5075768;28;20751;-65
2022/11/05 11:38:31;;;;;;;4.13;2.50;;;13.30;99.90;;;;;;5073984;28;20630;-65
2022/11/05 11:41:15;;;;;;;8.60;2.90;;;13.00;99.90;;;;;;5071971;28;20634;-64
2022/11/05 11:43:43;;;;;;;4.80;1.83;;;12.70;99.90;;;;;;5060316;28;20729;-64
2022/11/05 11:46:17;;;;;;;4.90;2.13;;;13.10;99.90;;;;;;5074925;28;20614;-66
2022/11/05 11:48:46;;;;;;;9.67;2.63;;;13.60;99.90;;;;;;5073955;28;20618;-65
2022/11/05 11:51:28;;;;;;;5.33;3.03;;;14.60;99.90;;;;;;5064607;28;20597;-65
2022/11/05 11:53:58;;;;;;;8.37;2.70;;;14.40;99.90;;;;;;5060326;28;20594;-65
2022/11/05 11:56:27;;;;;;;6.80;2.83;;;14.70;99.90;;;;;;5054747;28;20661;-65
2022/11/05 11:58:57;;;;;;;4.63;2.60;;;15.20;99.90;;;;;;5057978;28;20631;-65
2022/11/05 12:01:47;;;;;;;3.70;2.30;;;15.80;99.90;;;;;;5060353;28;20627;-65
2022/11/05 12:04:32;;;;;;;2.73;2.57;;;15.40;99.90;;;;;;5067019;28;20629;-65
2022/11/05 12:07:10;;;;;;;6.93;3.00;;;15.60;99.90;;;;;;5059492;28;20595;-65
2022/11/05 12:09:57;;;;;;;3.57;3.37;;;15.70;99.90;;;;;;5053479;28;20582;-66
2022/11/05 12:12:31;;;;;;;4.27;3.37;;;15.00;99.90;;;;;;5054806;28;20647;-65
2022/11/05 12:15:03;;;;;;;4.50;3.10;;;13.50;99.90;;;;;;5073107;28;20602;-65
2022/11/05 12:17:47;;;;;;;6.93;3.70;;;12.60;99.90;;;;;;5056023;28;20611;-65
2022/11/05 12:20:34;;;;;;;3.17;2.97;;;12.30;99.90;;;;;;5061574;28;20606;-65
2022/11/05 12:23:22;;;;;;;6.27;2.70;;;12.40;99.90;;;;;;5074739;28;20578;-65
2022/11/05 12:25:58;;;;;;;3.10;2.83;;;12.30;99.90;;;;;;5067781;28;20669;-65
2022/11/05 12:28:42;;;;;;;4.63;2.63;;;12.40;99.90;;;;;;5061719;28;20616;-65
2022/11/05 12:31:22;;;;;;;3.63;3.00;;;12.70;99.90;;;;;;5065282;28;20655;-65
2022/11/05 12:34:01;;;;;;;3.90;3.20;;;13.40;99.90;;;;;;5074233;28;20604;-65
2022/11/05 12:36:40;;;;;;;6.50;3.93;;;13.60;99.90;;;;;;5065073;28;20591;-65
2022/11/05 12:39:43;;;;;;;4.60;3.83;;;12.70;99.90;;;;;;5066649;28;20630;-65
2022/11/05 12:42:24;;;;;;;8.00;4.10;;;12.10;99.90;;;;;;5020004;28;20643;-65
2022/11/05 12:45:00;;;;;;;5.67;3.87;;;12.20;99.90;;;;;;5051161;28;20622;-65
2022/11/05 12:47:46;;;;;;;4.60;4.20;;;12.60;99.90;;;;;;5072103;28;20578;-65
2022/11/05 12:50:22;;;;;;;10.33;7.70;;;12.70;99.90;;;;;;5053226;28;20640;-65
2022/11/05 12:53:15;;;;;;;7.13;4.63;;;13.00;99.90;;;;;;5053375;28;20635;-65
2022/11/05 12:55:48;;;;;;;7.67;5.30;;;12.80;99.90;;;;;;5053739;28;20677;-65
2022/11/05 12:58:22;;;;;;;4.63;4.20;;;12.90;99.90;;;;;;5066822;28;21262;-65
2022/11/05 13:00:55;;;;;;;7.87;4.90;;;12.80;99.90;;;;;;5063263;28;20628;-65
2022/11/05 13:03:32;;;;;;;8.90;5.80;;;12.80;99.90;;;;;;5072857;28;20586;-65
2022/11/05 13:06:07;;;;;;;14.73;5.27;;;13.10;99.90;;;;;;5059161;28;20609;-65
2022/11/05 13:08:42;;;;;;;6.83;5.07;;;12.70;99.90;;;;;;5053581;28;20660;-65
2022/11/05 13:11:18;;;;;;;8.40;4.93;;;12.50;99.90;;;;;;5055151;28;20668;-65
2022/11/05 13:14:01;;;;;;;5.73;4.73;;;12.50;99.90;;;;;;5052524;28;20631;-65
2022/11/05 13:16:33;;;;;;;6.43;5.07;;;12.80;99.90;;;;;;5069959;28;20613;-65
2022/11/05 13:19:11;;;;;;;5.13;4.63;;;12.40;99.90;;;;;;5059653;28;20604;-65
2022/11/05 13:21:44;;;;;;;5.80;5.20;;;12.40;99.90;;;;;;5052815;28;20607;-65
2022/11/05 13:24:17;;;;;;;5.90;5.23;;;12.20;99.90;;;;;;5052335;28;20611;-65
2022/11/05 13:26:52;;;;;;;7.57;5.53;;;12.20;99.90;;;;;;5053230;28;20575;-65
2022/11/05 13:29:26;;;;;;;5.67;5.07;;;12.50;99.90;;;;;;5062654;28;20633;-65
2022/11/05 13:32:01;;;;;;;4.83;4.33;;;12.30;99.90;;;;;;5059767;28;20604;-65
2022/11/05 13:34:30;;;;;;;8.70;3.80;;;12.30;99.90;;;;;;5059048;28;20668;-65
2022/11/05 13:39:52;;;;;;;4.53;3.80;;;12.00;99.90;;;;;;5051873;28;20609;-64
2022/11/05 13:42:48;;;;;;;5.53;5.00;;;12.30;99.90;;;;;;5052798;28;20669;-64
2022/11/05 13:45:46;;;;;;;6.10;3.80;;;12.80;99.90;;;;;;5054030;28;20603;-65
2022/11/05 13:48:38;;;;;;;4.13;3.73;;;12.80;99.90;;;;;;5052182;28;20676;-65
2022/11/05 13:51:29;;;;;;;3.70;3.40;;;12.40;99.90;;;;;;5051852;28;20622;-64
2022/11/05 13:54:32;;;;;;;4.53;4.23;;;12.10;99.90;;;;;;5051897;28;20643;-64
2022/11/05 13:57:22;;;;;;;4.50;4.07;;;12.10;99.90;;;;;;5066671;28;20646;-64
2022/11/05 14:00:05;;;;;;;5.97;4.37;;;12.20;99.90;;;;;;5052187;28;20954;-64
2022/11/05 14:02:40;;;;;;;4.90;4.03;;;11.90;99.90;;;;;;5050385;28;20598;-64